Fruitland
, Fruitland
Last Weather Update:08/31/2011 10:00:00 PM
Date
ETo
ETc
Rain
Irrigation
Req
Temp
Max
Temp
Min
Temp
Avg
Avg RH
Avg Wind
Avg Solar
inches
inches
incehs
inches
F
F
F
%
%
watts/m2
07/01/2011 0.24" 0.19" 0.00" 0.19" 82.1° 40.4° 61.9° 57.0% 0.9 MPH 362.5w/m2
07/02/2011 0.24" 0.20" 0.00" 0.20" 89.2° 43.3° 66.5° 53.3% 1.0 MPH 348.4w/m2
07/03/2011 0.24" 0.19" 0.00" 0.19" 91.0° 44.0° 68.8° 46.7% 1.1 MPH 324.9w/m2
07/04/2011 0.13" 0.10" 0.10" 0.02" 85.6° 55.3° 66.4° 59.6% 0.5 MPH 181.3w/m2
07/05/2011 0.13" 0.11" 0.31" -0.14" 78.2° 55.9° 63.2° 75.8% 1.1 MPH 200.1w/m2
07/06/2011 0.25" 0.21" 0.00" 0.21" 82.4° 54.9° 68.0° 63.2% 2.9 MPH 343.9w/m2
07/07/2011 0.12" 0.10" 0.40" -0.22" 81.2° 56.5° 64.3° 75.2% 0.7 MPH 185.7w/m2
07/08/2011 0.14" 0.12" 0.01" 0.11" 76.3° 55.6° 63.2° 74.4% 2.1 MPH 203.7w/m2
07/09/2011 0.25" 0.20" 0.00" 0.20" 83.0° 49.1° 66.8° 58.1% 0.8 MPH 367.8w/m2
07/10/2011 0.16" 0.13" 0.02" 0.11" 74.9° 53.8° 61.6° 71.5% 1.9 MPH 236.1w/m2
07/11/2011 0.19" 0.16" 0.00" 0.16" 82.8° 49.3° 63.5° 65.3% 1.4 MPH 267.1w/m2
07/12/2011 0.09" 0.08" 0.01" 0.07" 74.0° 51.8° 61.2° 77.6% 0.1 MPH 135.3w/m2
07/13/2011 0.12" 0.10" 0.67" -0.43" 71.7° 46.4° 57.5° 81.0% 1.2 MPH 196.6w/m2
07/14/2011 0.23" 0.20" 0.00" 0.20" 79.8° 43.1° 61.6° 61.6% 1.0 MPH 344.6w/m2
07/15/2011 0.28" 0.23" 0.00" 0.23" 81.0° 42.5° 62.7° 44.6% 3.3 MPH 370.5w/m2
07/16/2011 0.27" 0.23" 0.00" 0.23" 84.3° 36.4° 62.9° 44.3% 3.6 MPH 355.8w/m2
07/17/2011 0.15" 0.13" 0.00" 0.13" 83.6° 43.4° 63.0° 61.3% 2.0 MPH 187.8w/m2
07/18/2011 0.12" 0.10" 0.32" -0.16" 79.1° 55.8° 63.0° 80.4% 0.5 MPH 173.2w/m2
07/19/2011 0.15" 0.13" 0.22" -0.05" 80.0° 54.0° 63.8° 77.2% 0.5 MPH 220.6w/m2
07/20/2011 0.26" 0.22" 0.00" 0.22" 81.9° 48.2° 65.2° 59.8% 2.2 MPH 360.3w/m2
07/21/2011 0.27" 0.23" 0.00" 0.23" 84.0° 45.1° 64.9° 45.5% 2.3 MPH 366.1w/m2
07/22/2011 0.28" 0.25" 0.00" 0.25" 83.3° 39.9° 64.2° 38.4% 3.9 MPH 366.3w/m2
07/23/2011 0.29" 0.25" 0.00" 0.25" 84.9° 44.2° 67.1° 35.3% 5.0 MPH 357.7w/m2
07/24/2011 0.25" 0.22" 0.00" 0.22" 90.3° 46.4° 69.0° 38.8% 0.6 MPH 358.8w/m2
07/25/2011 0.20" 0.18" 0.00" 0.18" 88.1° 49.3° 70.0° 42.5% 1.5 MPH 266.6w/m2
07/26/2011 0.20" 0.18" 0.34" -0.10" 83.2° 53.3° 66.0° 66.5% 2.5 MPH 270.0w/m2
07/27/2011 0.21" 0.19" 0.01" 0.18" 80.3° 50.8° 63.3° 67.5% 2.6 MPH 285.8w/m2
07/28/2011 0.24" 0.21" 0.00" 0.21" 84.1° 49.8° 65.8° 58.4% 1.1 MPH 336.0w/m2
07/29/2011 0.24" 0.22" 0.00" 0.22" 88.0° 49.4° 68.6° 50.4% 1.3 MPH 332.4w/m2
07/30/2011 0.20" 0.18" 0.00" 0.18" 87.5° 50.6° 69.2° 49.1% 1.5 MPH 268.6w/m2
07/31/2011 0.07" 0.06" 0.04" 0.03" 78.9° 57.2° 64.5° 72.0% 0.7 MPH 91.7w/m2
Totals: 6.21" 5.29" 2.45" 3.33" 91.0° 36.4° 64.8° 59.8% 1.7 MPH 279.5w/m2